createdAt,value
2022-09-14T00:01:27.892Z,4.62
2022-09-14T00:03:59.532Z,5.40
2022-09-14T00:06:27.254Z,5.97
2022-09-14T00:08:56.894Z,4.95
2022-09-14T00:11:26.158Z,4.87
2022-09-14T00:13:53.315Z,5.15
2022-09-14T00:16:24.101Z,5.35
2022-09-14T00:18:58.315Z,5.00
2022-09-14T00:21:24.884Z,4.85
2022-09-14T00:23:52.011Z,5.18
2022-09-14T00:26:22.328Z,4.87
2022-09-14T00:28:53.070Z,5.05
2022-09-14T00:31:21.020Z,4.93
2022-09-14T00:33:50.036Z,5.10
2022-09-14T00:36:42.301Z,4.80
2022-09-14T00:39:09.905Z,4.35
2022-09-14T00:41:42.102Z,4.75
2022-09-14T00:45:39.166Z,4.47
2022-09-14T00:48:05.693Z,5.00
2022-09-14T00:50:32.733Z,4.97
2022-09-14T00:52:59.400Z,4.75
2022-09-14T00:55:25.914Z,4.85
2022-09-14T00:57:53.514Z,5.37
2022-09-14T01:00:24.728Z,4.50
2022-09-14T01:02:51.550Z,5.32
2022-09-14T01:05:24.024Z,5.20
2022-09-14T01:10:19.250Z,5.15
2022-09-14T01:17:00.435Z,4.80
2022-09-14T01:20:20.097Z,4.50
2022-09-14T01:24:39.758Z,4.55
2022-09-14T01:27:45.940Z,4.27
2022-09-14T01:30:22.393Z,4.68
2022-09-14T01:33:53.083Z,4.62
2022-09-14T01:36:22.681Z,4.70
2022-09-14T01:38:53.109Z,5.25
2022-09-14T01:41:28.482Z,4.95
2022-09-14T01:44:07.847Z,5.07
2022-09-14T01:47:01.075Z,4.80
2022-09-14T01:49:40.755Z,4.95
2022-09-14T01:52:22.790Z,4.72
2022-09-14T01:55:02.534Z,5.18
2022-09-14T01:57:50.373Z,5.43
2022-09-14T02:00:20.641Z,5.22
2022-09-14T02:03:00.050Z,4.87
2022-09-14T02:05:50.445Z,4.75
2022-09-14T02:08:17.373Z,5.82
2022-09-14T02:10:43.886Z,5.80
2022-09-14T02:13:10.461Z,6.12
2022-09-14T02:15:38.216Z,5.80
2022-09-14T02:18:05.410Z,5.65
2022-09-14T02:21:05.437Z,5.47
2022-09-14T02:23:34.942Z,5.78
2022-09-14T02:26:01.595Z,5.28
2022-09-14T02:28:28.087Z,5.72
2022-09-14T02:34:30.005Z,5.62
2022-09-14T02:37:22.840Z,5.40
2022-09-14T02:40:57.710Z,5.28
2022-09-14T02:43:47.624Z,5.00
2022-09-14T02:47:13.658Z,5.10
2022-09-14T02:50:33.518Z,5.62
2022-09-14T02:53:28.056Z,5.63
2022-09-14T02:56:01.746Z,5.23
2022-09-14T02:58:40.579Z,5.60
2022-09-14T03:01:11.319Z,6.10
2022-09-14T03:03:38.179Z,5.70
2022-09-14T03:06:06.031Z,5.47
2022-09-14T03:08:33.197Z,5.40
2022-09-14T03:10:59.691Z,5.03
2022-09-14T03:13:28.383Z,5.57
2022-09-14T03:15:54.870Z,5.15
2022-09-14T03:18:21.426Z,5.12
2022-09-14T03:20:47.929Z,5.47
2022-09-14T03:23:14.940Z,5.95
2022-09-14T03:25:43.787Z,5.85
2022-09-14T03:28:12.223Z,5.40
2022-09-14T03:30:39.011Z,5.55
2022-09-14T03:33:05.877Z,5.00
2022-09-14T03:35:34.033Z,5.82
2022-09-14T03:38:02.525Z,5.95
2022-09-14T03:40:29.875Z,5.80
2022-09-14T03:42:56.644Z,5.30
2022-09-14T03:45:23.345Z,5.75
2022-09-14T03:47:50.571Z,4.95
2022-09-14T03:50:18.631Z,4.93
2022-09-14T03:52:47.520Z,5.15
2022-09-14T03:55:14.524Z,5.62
2022-09-14T03:57:41.114Z,4.90
2022-09-14T04:00:08.940Z,4.55
2022-09-14T04:02:35.524Z,4.85
2022-09-14T04:05:02.158Z,4.82
2022-09-14T04:07:28.956Z,4.80
2022-09-14T04:09:55.510Z,5.30
2022-09-14T04:12:22.126Z,5.85
2022-09-14T04:14:48.604Z,5.62
2022-09-14T04:17:16.002Z,5.82
2022-09-14T04:19:42.497Z,5.60
2022-09-14T04:22:08.968Z,5.53
2022-09-14T04:24:36.171Z,6.10
2022-09-14T04:27:02.686Z,5.32
2022-09-14T04:29:29.847Z,5.70
2022-09-14T04:31:56.675Z,5.53
2022-09-14T04:34:23.172Z,5.90
2022-09-14T04:36:49.673Z,6.20
2022-09-14T04:39:16.237Z,5.47
2022-09-14T04:41:43.488Z,4.95
2022-09-14T04:44:10.277Z,5.37
2022-09-14T04:46:42.294Z,5.00
2022-09-14T04:49:12.814Z,5.75
2022-09-14T04:51:39.319Z,5.68
2022-09-14T04:54:06.952Z,5.57
2022-09-14T04:56:36.303Z,5.78
2022-09-14T04:59:05.020Z,5.25
2022-09-14T05:01:42.770Z,5.40
2022-09-14T05:04:11.383Z,5.93
2022-09-14T05:06:40.589Z,5.55
2022-09-14T05:09:16.118Z,5.20
2022-09-14T05:11:43.322Z,5.72
2022-09-14T05:14:12.971Z,5.03
2022-09-14T05:16:42.185Z,5.70
2022-09-14T05:19:17.463Z,4.75
2022-09-14T05:21:45.556Z,4.90
2022-09-14T05:24:17.804Z,5.37
2022-09-14T05:26:45.739Z,5.05
2022-09-14T05:29:15.276Z,5.15
2022-09-14T05:31:42.114Z,5.28
2022-09-14T05:34:10.419Z,5.10
2022-09-14T05:36:38.821Z,5.07
2022-09-14T05:39:06.833Z,5.82
2022-09-14T05:41:33.307Z,5.32
2022-09-14T05:44:00.121Z,5.47
2022-09-14T05:46:26.802Z,4.93
2022-09-14T05:48:53.452Z,5.57
2022-09-14T05:51:25.526Z,5.80
2022-09-14T05:53:57.662Z,5.22
2022-09-14T05:56:27.668Z,5.50
2022-09-14T05:58:54.813Z,5.18
2022-09-14T06:01:24.822Z,5.18
2022-09-14T06:03:55.625Z,5.07
2022-09-14T06:06:23.164Z,5.22
2022-09-14T06:08:55.533Z,5.25
2022-09-14T06:11:32.391Z,4.37
2022-09-14T06:13:59.782Z,4.43
2022-09-14T06:16:27.930Z,4.82
2022-09-14T06:18:57.352Z,5.10
2022-09-14T06:21:28.286Z,4.68
2022-09-14T06:23:55.329Z,4.40
2022-09-14T06:26:21.810Z,5.10
2022-09-14T06:28:48.997Z,4.45
2022-09-14T06:31:17.107Z,4.78
2022-09-14T06:33:48.679Z,4.97
2022-09-14T06:36:21.761Z,4.60
2022-09-14T06:38:49.626Z,4.60
2022-09-14T06:41:20.965Z,4.62
2022-09-14T06:43:48.658Z,4.37
2022-09-14T06:46:27.520Z,4.43
2022-09-14T06:49:05.021Z,4.82
2022-09-14T06:51:45.759Z,4.47
2022-09-14T06:54:14.710Z,5.07
2022-09-14T06:56:43.566Z,6.12
2022-09-14T06:59:14.312Z,5.07
2022-09-14T07:01:42.615Z,5.10
2022-09-14T07:04:09.139Z,4.55
2022-09-14T07:06:45.750Z,4.65
2022-09-14T07:09:13.879Z,4.45
2022-09-14T07:11:41.372Z,4.35
2022-09-14T07:14:09.395Z,4.00
2022-09-14T07:16:39.076Z,4.25
2022-09-14T07:19:13.790Z,4.15
2022-09-14T07:21:41.640Z,4.35
2022-09-14T07:24:08.393Z,4.07
2022-09-14T07:26:40.983Z,4.25
2022-09-14T07:29:18.099Z,4.20
2022-09-14T07:31:53.529Z,3.90
2022-09-14T07:34:21.036Z,3.95
2022-09-14T07:36:47.717Z,4.07
2022-09-14T07:39:16.525Z,4.35
2022-09-14T07:41:43.778Z,4.05
2022-09-14T07:44:15.294Z,4.07
2022-09-14T07:46:44.622Z,4.85
2022-09-14T07:49:12.107Z,3.85
2022-09-14T07:51:39.485Z,3.65
2022-09-14T07:54:08.098Z,3.40
2022-09-14T07:56:34.847Z,3.67
2022-09-14T08:01:58.570Z,3.75
2022-09-14T08:04:25.278Z,3.87
2022-09-14T08:06:51.747Z,4.20
2022-09-14T08:09:18.263Z,3.75
2022-09-14T08:11:44.732Z,3.58
2022-09-14T08:14:13.342Z,3.67
2022-09-14T08:16:40.778Z,3.67
2022-09-14T08:19:20.152Z,3.95
2022-09-14T08:21:48.029Z,3.87
2022-09-14T08:24:18.627Z,3.72
2022-09-14T08:26:46.460Z,3.80
2022-09-14T08:29:14.882Z,4.03
2022-09-14T08:31:43.475Z,4.18
2022-09-14T08:34:10.841Z,3.75
2022-09-14T08:36:41.579Z,4.10
2022-09-14T08:39:10.822Z,4.25
2022-09-14T08:41:54.773Z,6.47
2022-09-14T08:44:44.021Z,4.00
2022-09-14T08:47:18.501Z,4.20
2022-09-14T08:50:05.015Z,4.35
2022-09-14T08:52:43.528Z,4.57
2022-09-14T08:56:33.524Z,4.00
2022-09-14T09:00:45.164Z,4.35
2022-09-14T09:03:53.072Z,4.53
2022-09-14T09:09:39.870Z,4.07
2022-09-14T09:12:11.355Z,4.40
2022-09-14T09:14:54.100Z,4.35
2022-09-14T09:17:46.311Z,4.55
2022-09-14T09:20:29.446Z,4.00
2022-09-14T09:23:20.327Z,4.12
2022-09-14T09:26:32.983Z,4.97
2022-09-14T09:29:02.830Z,3.60
2022-09-14T09:31:44.523Z,3.72
2022-09-14T09:34:16.922Z,3.92
2022-09-14T09:36:48.942Z,4.10
2022-09-14T09:39:16.519Z,3.17
2022-09-14T09:43:11.441Z,3.33
2022-09-14T09:45:58.706Z,3.00
2022-09-14T09:48:38.765Z,4.37
2022-09-14T09:51:43.520Z,3.28
2022-09-14T09:54:31.627Z,2.90
2022-09-14T09:57:06.292Z,3.15
2022-09-14T09:59:43.390Z,3.00
2022-09-14T10:02:30.437Z,2.67
2022-09-14T10:05:18.185Z,3.00
2022-09-14T10:08:21.107Z,2.58
2022-09-14T10:10:47.675Z,2.72
2022-09-14T10:13:32.018Z,2.70
2022-09-14T10:16:40.039Z,2.78
2022-09-14T10:19:25.198Z,2.87
2022-09-14T10:22:32.996Z,2.95
2022-09-14T10:25:25.430Z,2.50
2022-09-14T10:28:00.135Z,3.00
2022-09-14T10:30:48.517Z,2.58
2022-09-14T10:33:17.629Z,2.70
2022-09-14T10:36:39.350Z,2.62
2022-09-14T10:39:37.283Z,2.78
2022-09-14T10:42:43.920Z,2.65
2022-09-14T10:45:44.482Z,3.08
2022-09-14T10:52:59.990Z,2.75
2022-09-14T10:56:09.383Z,2.40
2022-09-14T10:59:22.847Z,3.20
2022-09-14T11:03:46.247Z,2.65
2022-09-14T11:06:50.689Z,2.70
2022-09-14T11:10:33.471Z,2.83
2022-09-14T11:15:29.058Z,2.90
2022-09-14T11:19:54.705Z,2.65
2022-09-14T11:23:54.183Z,2.80
2022-09-14T11:29:12.199Z,3.20
2022-09-14T11:34:55.397Z,3.10
2022-09-14T11:37:32.994Z,3.00
2022-09-14T11:41:30.724Z,3.03
2022-09-14T11:44:15.484Z,2.90
2022-09-14T11:47:17.430Z,3.20
2022-09-14T11:50:06.221Z,2.75
2022-09-14T11:52:34.194Z,2.72
2022-09-14T11:55:08.259Z,2.45
2022-09-14T11:57:35.681Z,2.90
2022-09-14T12:00:44.075Z,2.53
2022-09-14T12:03:21.508Z,2.53
2022-09-14T12:05:49.679Z,2.75
2022-09-14T12:10:19.184Z,2.70
2022-09-14T12:12:55.078Z,3.30
2022-09-14T12:15:40.527Z,2.87
2022-09-14T12:18:23.392Z,2.87
2022-09-14T12:21:06.648Z,3.00
2022-09-14T12:23:45.567Z,3.40
2022-09-14T12:26:30.894Z,3.58
2022-09-14T12:29:42.799Z,3.20
2022-09-14T12:32:46.069Z,3.40
2022-09-14T12:35:49.066Z,3.12
2022-09-14T12:40:37.327Z,2.78
2022-09-14T12:46:37.686Z,3.87
2022-09-14T12:49:28.753Z,3.25
2022-09-14T12:52:00.884Z,3.75
2022-09-14T12:56:32.227Z,4.10
2022-09-14T13:02:46.606Z,3.17
2022-09-14T13:05:19.773Z,3.10
2022-09-14T13:07:46.610Z,3.25
2022-09-14T13:12:10.277Z,3.30
2022-09-14T13:15:49.003Z,3.17
2022-09-14T13:18:36.748Z,3.22
2022-09-14T13:21:24.203Z,3.28
2022-09-14T13:23:51.339Z,3.58
2022-09-14T13:26:30.915Z,3.28
2022-09-14T13:29:01.780Z,3.72
2022-09-14T13:31:36.483Z,3.17
2022-09-14T13:34:04.859Z,4.07
2022-09-14T13:36:42.669Z,3.75
2022-09-14T13:39:34.268Z,3.67
2022-09-14T13:42:03.985Z,3.83
2022-09-14T13:44:44.370Z,3.67
2022-09-14T13:47:15.006Z,3.50
2022-09-14T13:49:44.465Z,2.92
2022-09-14T13:53:01.115Z,3.40
2022-09-14T13:55:43.525Z,3.70
2022-09-14T13:58:22.996Z,3.00
2022-09-14T14:01:04.910Z,3.20
2022-09-14T14:03:39.350Z,3.37
2022-09-14T14:07:44.744Z,3.12
2022-09-14T14:10:41.627Z,3.20
2022-09-14T14:13:08.135Z,3.78
2022-09-14T14:15:43.324Z,3.40
2022-09-14T14:18:40.460Z,2.70
2022-09-14T14:21:32.676Z,3.05
2022-09-14T14:24:25.982Z,3.20
2022-09-14T14:26:56.128Z,2.87
2022-09-14T14:29:24.930Z,3.22
2022-09-14T14:31:54.299Z,3.20
2022-09-14T14:34:28.023Z,2.72
2022-09-14T14:36:55.580Z,3.15
2022-09-14T14:39:24.932Z,3.03
2022-09-14T14:41:52.376Z,3.15
2022-09-14T14:44:27.459Z,2.92
2022-09-14T14:46:55.174Z,3.20
2022-09-14T14:49:22.906Z,3.10
2022-09-14T14:51:50.130Z,2.92
2022-09-14T14:54:17.895Z,3.22
2022-09-14T14:56:50.433Z,3.40
2022-09-14T14:59:35.561Z,2.85
2022-09-14T15:02:04.769Z,2.85
2022-09-14T15:04:31.251Z,2.80
2022-09-14T15:06:57.747Z,3.10
2022-09-14T15:09:29.146Z,3.35
2022-09-14T15:11:56.021Z,3.25
2022-09-14T15:14:27.450Z,3.20
2022-09-14T15:16:58.909Z,2.90
2022-09-14T15:19:28.667Z,3.25
2022-09-14T15:22:00.253Z,3.03
2022-09-14T15:24:27.432Z,3.05
2022-09-14T15:26:53.903Z,3.30
2022-09-14T15:29:20.348Z,2.80
2022-09-14T15:31:47.580Z,3.20
2022-09-14T15:34:15.660Z,2.92
2022-09-14T15:36:53.565Z,3.30
2022-09-14T15:39:30.860Z,3.08
2022-09-14T15:41:58.103Z,3.35
2022-09-14T15:44:24.561Z,3.58
2022-09-14T15:46:51.989Z,3.17
2022-09-14T15:49:22.752Z,3.17
2022-09-14T15:51:52.149Z,2.92
2022-09-14T15:54:23.575Z,4.53
2022-09-14T15:56:55.993Z,3.72
2022-09-14T15:59:22.730Z,3.83
2022-09-14T16:01:49.312Z,3.30
2022-09-14T16:04:15.801Z,2.87
2022-09-14T16:06:42.526Z,2.90
2022-09-14T16:09:11.864Z,3.30
2022-09-14T16:11:39.488Z,3.28
2022-09-14T16:14:08.720Z,2.72
2022-09-14T16:16:37.474Z,3.37
2022-09-14T16:19:10.697Z,3.00
2022-09-14T16:21:37.823Z,2.95
2022-09-14T16:24:09.586Z,3.37
2022-09-14T16:26:37.757Z,3.15
2022-09-14T16:29:07.640Z,3.37
2022-09-14T16:31:37.502Z,3.12
2022-09-14T16:34:14.467Z,3.25
2022-09-14T16:36:41.843Z,3.40
2022-09-14T16:39:14.763Z,3.22
2022-09-14T16:41:41.923Z,3.67
2022-09-14T16:44:18.571Z,2.90
2022-09-14T16:46:45.952Z,3.10
2022-09-14T16:49:12.406Z,3.10
2022-09-14T16:51:39.516Z,3.20
2022-09-14T16:54:06.749Z,3.10
2022-09-14T16:56:37.069Z,3.65
2022-09-14T16:59:05.366Z,3.40
2022-09-14T17:01:42.073Z,3.00
2022-09-14T17:04:16.588Z,3.40
2022-09-14T17:06:45.345Z,3.12
2022-09-14T17:09:19.866Z,3.60
2022-09-14T17:11:47.837Z,3.37
2022-09-14T17:14:18.613Z,3.03
2022-09-14T17:16:45.528Z,3.35
2022-09-14T17:19:13.011Z,3.17
2022-09-14T17:21:43.409Z,3.37
2022-09-14T17:24:11.715Z,3.25
2022-09-14T17:26:38.210Z,3.20
2022-09-14T17:29:06.170Z,3.03
2022-09-14T17:31:37.151Z,3.20
2022-09-14T17:34:06.711Z,3.42
2022-09-14T17:36:33.859Z,3.33
2022-09-14T17:39:06.774Z,3.42
2022-09-14T17:41:38.153Z,3.30
2022-09-14T17:44:06.973Z,3.33
2022-09-14T17:46:33.793Z,3.25
2022-09-14T17:49:03.507Z,3.17
2022-09-14T17:51:31.788Z,3.55
2022-09-14T17:54:00.458Z,4.03
2022-09-14T17:56:28.721Z,4.00
2022-09-14T17:59:05.397Z,3.85
2022-09-14T18:01:33.212Z,3.55
2022-09-14T18:04:11.286Z,3.00
2022-09-14T18:06:42.719Z,3.05
2022-09-14T18:09:17.168Z,3.65
2022-09-14T18:11:44.930Z,3.50
2022-09-14T18:14:14.275Z,3.40
2022-09-14T18:16:42.341Z,3.50
2022-09-14T18:19:09.474Z,4.05
2022-09-14T18:21:36.208Z,3.78
2022-09-14T18:24:03.866Z,3.40
2022-09-14T18:26:30.330Z,3.30
2022-09-14T18:28:57.917Z,3.65
2022-09-14T18:31:25.857Z,3.97
2022-09-14T18:34:03.166Z,3.70
2022-09-14T18:36:30.162Z,3.20
2022-09-14T18:38:57.958Z,3.05
2022-09-14T18:41:24.659Z,3.78
2022-09-14T18:43:52.671Z,3.40
2022-09-14T18:46:21.691Z,2.90
2022-09-14T18:48:52.203Z,3.90
2022-09-14T18:51:19.500Z,3.45
2022-09-14T18:53:46.083Z,3.35
2022-09-14T18:56:16.992Z,3.55
2022-09-14T18:58:46.504Z,3.83
2022-09-14T19:01:14.098Z,3.90
2022-09-14T19:03:42.119Z,4.50
2022-09-14T19:06:12.755Z,4.35
2022-09-14T19:08:40.194Z,3.90
2022-09-14T19:11:32.579Z,3.87
2022-09-14T19:14:04.267Z,4.18
2022-09-14T19:16:30.857Z,4.78
2022-09-14T19:18:57.675Z,4.47
2022-09-14T19:21:27.452Z,4.40
2022-09-14T19:24:10.886Z,4.25
2022-09-14T19:26:45.321Z,4.28
2022-09-14T19:29:14.788Z,4.68
2022-09-14T19:31:41.833Z,4.22
2022-09-14T19:34:10.017Z,4.20
2022-09-14T19:36:36.463Z,4.35
2022-09-14T19:39:04.363Z,4.47
2022-09-14T19:41:33.320Z,4.15
2022-09-14T19:44:01.302Z,4.22
2022-09-14T19:46:30.280Z,4.55
2022-09-14T19:48:56.996Z,4.65
2022-09-14T19:51:27.850Z,4.40
2022-09-14T19:53:58.288Z,4.10
2022-09-14T19:56:28.166Z,4.32
2022-09-14T19:58:59.025Z,5.00
2022-09-14T20:01:28.030Z,4.32
2022-09-14T20:03:54.842Z,4.60
2022-09-14T20:06:33.827Z,4.18
2022-09-14T20:09:10.721Z,4.50
2022-09-14T20:11:40.497Z,4.62
2022-09-14T20:14:11.919Z,3.92
2022-09-14T20:16:46.081Z,4.47
2022-09-14T20:19:19.133Z,3.53
2022-09-14T20:21:47.765Z,4.15
2022-09-14T20:24:19.537Z,4.28
2022-09-14T20:26:48.654Z,4.45
2022-09-14T20:29:17.253Z,4.25
2022-09-14T20:31:44.487Z,4.43
2022-09-14T20:34:12.350Z,4.28
2022-09-14T20:36:39.047Z,4.60
2022-09-14T20:39:05.727Z,3.97
2022-09-14T20:41:34.973Z,5.15
2022-09-14T20:44:02.157Z,4.57
2022-09-14T20:46:34.282Z,4.30
2022-09-14T20:49:02.270Z,4.12
2022-09-14T20:51:28.772Z,4.18
2022-09-14T20:53:55.631Z,4.70
2022-09-14T20:56:26.257Z,4.30
2022-09-14T20:58:58.799Z,4.50
2022-09-14T21:01:30.807Z,3.87
2022-09-14T21:04:05.010Z,4.40
2022-09-14T21:06:34.665Z,4.53
2022-09-14T21:09:01.145Z,4.50
2022-09-14T21:11:28.186Z,4.75
2022-09-14T21:13:56.875Z,4.32
2022-09-14T21:16:31.158Z,4.72
2022-09-14T21:19:01.233Z,4.50
2022-09-14T21:21:28.687Z,4.20
2022-09-14T21:23:57.972Z,4.50
2022-09-14T21:26:25.591Z,4.30
2022-09-14T21:28:57.955Z,4.72
2022-09-14T21:31:27.591Z,4.53
2022-09-14T21:34:03.602Z,5.03
2022-09-14T21:36:34.597Z,4.22
2022-09-14T21:39:10.541Z,4.60
2022-09-14T21:41:38.792Z,4.35
2022-09-14T21:44:05.698Z,4.30
2022-09-14T21:46:32.565Z,4.37
2022-09-14T21:48:59.329Z,4.68
2022-09-14T21:51:37.276Z,4.22
2022-09-14T21:54:08.494Z,4.37
2022-09-14T21:56:39.049Z,4.15
2022-09-14T21:59:14.191Z,4.78
2022-09-14T22:01:41.590Z,4.43
2022-09-14T22:04:13.961Z,5.10
2022-09-14T22:06:40.449Z,4.43
2022-09-14T22:09:07.525Z,4.53
2022-09-14T22:11:36.770Z,4.55
2022-09-14T22:14:07.534Z,4.53
2022-09-14T22:16:37.125Z,4.85
2022-09-14T22:19:29.834Z,4.28
2022-09-14T22:21:57.506Z,4.45
2022-09-14T22:24:38.211Z,4.18
2022-09-14T22:27:14.057Z,4.18
2022-09-14T22:29:40.921Z,4.30
2022-09-14T22:32:10.335Z,4.12
2022-09-14T22:34:38.619Z,4.37
2022-09-14T22:37:05.655Z,4.32
2022-09-14T22:39:32.248Z,5.07
2022-09-14T22:41:58.754Z,4.30
2022-09-14T22:44:25.335Z,4.53
2022-09-14T22:46:51.830Z,4.20
2022-09-14T22:49:18.287Z,4.30
2022-09-14T22:51:44.754Z,4.15
2022-09-14T22:54:11.234Z,4.22
2022-09-14T22:56:39.174Z,4.90
2022-09-14T22:59:08.356Z,4.28
2022-09-14T23:01:39.088Z,4.00
2022-09-14T23:04:09.949Z,4.53
2022-09-14T23:06:43.505Z,4.20
2022-09-14T23:09:17.854Z,4.12
2022-09-14T23:11:45.376Z,3.95
2022-09-14T23:14:16.144Z,3.25
2022-09-14T23:16:44.259Z,3.70
2022-09-14T23:19:18.192Z,2.97
2022-09-14T23:21:45.297Z,2.40
2022-09-14T23:24:12.265Z,2.08
2022-09-14T23:26:39.422Z,2.60
2022-09-14T23:29:11.964Z,1.60
2022-09-14T23:31:38.417Z,2.00
2022-09-14T23:34:05.568Z,2.10
2022-09-14T23:36:32.431Z,1.73
2022-09-14T23:38:59.296Z,1.90
2022-09-14T23:41:27.448Z,1.80
2022-09-14T23:43:54.447Z,1.75
2022-09-14T23:46:21.804Z,1.50
2022-09-14T23:48:48.493Z,1.85
2022-09-14T23:51:15.535Z,1.83
2022-09-14T23:53:42.469Z,2.40
2022-09-14T23:56:09.661Z,1.40
2022-09-14T23:58:36.465Z,1.67
